Time;durP1;ratioP1;P1;durP2;ratioP2;P2;SDS_P1;SDS_P2;PMS_P1;PMS_P2;Temp;Humidity;BMP_temperature;BMP_pressure;BME280_temperature;BME280_humidity;BME280_pressure;Samples;Min_cycle;Max_cycle;Signal;HPM_P1;HPM_P2
2022/07/18 00:02:17;;;;;;;3.10;2.90;;;19.00;49.90;;;;;;5008775;28;20206;-65
2022/07/18 00:04:43;;;;;;;2.80;2.40;;;18.90;49.10;;;;;;5009975;28;20179;-66
2022/07/18 00:07:10;;;;;;;4.10;3.10;;;19.00;49.30;;;;;;5009401;28;20457;-64
2022/07/18 00:09:37;;;;;;;2.57;2.37;;;18.90;48.50;;;;;;5008163;28;20191;-64
2022/07/18 00:12:04;;;;;;;2.80;2.30;;;18.90;48.70;;;;;;5009089;28;20446;-66
2022/07/18 00:14:30;;;;;;;2.70;2.60;;;18.90;49.20;;;;;;5004399;28;20438;-64
2022/07/18 00:16:55;;;;;;;3.00;2.80;;;18.80;48.90;;;;;;5009976;28;20954;-65
2022/07/18 00:19:21;;;;;;;5.03;2.73;;;18.70;49.40;;;;;;5007903;28;20182;-65
2022/07/18 00:21:46;;;;;;;1.87;1.77;;;18.60;49.20;;;;;;5008636;28;20190;-65
2022/07/18 00:24:12;;;;;;;3.53;2.63;;;18.60;48.80;;;;;;5010506;28;20272;-65
2022/07/18 00:26:38;;;;;;;5.07;2.80;;;18.60;48.00;;;;;;5009877;28;20282;-66
2022/07/18 00:29:03;;;;;;;5.17;2.10;;;18.60;49.20;;;;;;5008385;28;20182;-64
2022/07/18 00:31:29;;;;;;;2.93;2.73;;;18.60;48.60;;;;;;5009414;28;20195;-64
2022/07/18 00:33:54;;;;;;;2.60;2.40;;;18.60;49.30;;;;;;5009066;28;20191;-64
2022/07/18 00:36:20;;;;;;;4.97;3.57;;;18.50;50.10;;;;;;4992403;28;20209;-64
2022/07/18 00:38:45;;;;;;;4.70;3.23;;;18.40;50.10;;;;;;5009733;28;20186;-66
2022/07/18 00:41:14;;;;;;;3.07;2.80;;;18.30;50.10;;;;;;5010921;28;20262;-65
2022/07/18 00:43:40;;;;;;;2.63;2.43;;;18.30;50.40;;;;;;5008898;28;20199;-64
2022/07/18 00:46:05;;;;;;;2.33;2.23;;;18.30;50.10;;;;;;5010921;28;20433;-65
2022/07/18 00:48:31;;;;;;;2.80;2.60;;;18.30;50.40;;;;;;5012490;28;20699;-64
2022/07/18 00:50:56;;;;;;;2.83;2.53;;;18.30;50.80;;;;;;5011572;28;20269;-64
2022/07/18 00:53:23;;;;;;;2.87;2.40;;;18.20;51.10;;;;;;5011183;28;20206;-64
2022/07/18 00:55:51;;;;;;;2.30;2.10;;;18.20;49.40;;;;;;5017428;28;20177;-65
2022/07/18 00:58:16;;;;;;;3.53;2.57;;;18.10;51.30;;;;;;5012540;28;20441;-65
2022/07/18 01:03:26;;;;;;;2.80;2.20;;;18.00;50.10;;;;;;5012055;28;20245;-64
2022/07/18 01:05:52;;;;;;;2.87;2.30;;;18.00;49.80;;;;;;5011116;28;20478;-65
2022/07/18 01:08:18;;;;;;;2.90;2.30;;;18.00;49.10;;;;;;5012596;28;20465;-65
2022/07/18 01:10:43;;;;;;;2.70;2.50;;;18.00;49.50;;;;;;5011725;28;20194;-64
2022/07/18 01:13:09;;;;;;;2.70;2.50;;;18.00;49.90;;;;;;5012604;28;20190;-67
2022/07/18 01:15:36;;;;;;;2.90;2.60;;;17.90;51.00;;;;;;5012943;28;20206;-65
2022/07/18 01:18:01;;;;;;;3.40;2.43;;;17.90;51.30;;;;;;5012728;28;20179;-65
2022/07/18 01:20:28;;;;;;;2.53;2.33;;;17.90;51.20;;;;;;5011673;28;20445;-64
2022/07/18 01:22:54;;;;;;;3.37;2.23;;;17.80;50.90;;;;;;5012969;28;20297;-66
2022/07/18 01:25:20;;;;;;;2.53;2.27;;;17.80;51.60;;;;;;5012995;28;20528;-64
2022/07/18 01:27:45;;;;;;;4.07;2.47;;;17.70;51.30;;;;;;5011467;28;20277;-64
2022/07/18 01:30:11;;;;;;;2.67;2.47;;;17.70;51.70;;;;;;4992407;28;20266;-64
2022/07/18 01:32:36;;;;;;;2.47;2.27;;;17.70;51.80;;;;;;5012938;28;20198;-65
2022/07/18 01:35:04;;;;;;;2.40;2.20;;;17.70;52.50;;;;;;5012106;28;20215;-64
2022/07/18 01:37:29;;;;;;;2.80;2.60;;;17.60;52.40;;;;;;5010828;28;20179;-64
2022/07/18 01:39:55;;;;;;;4.00;2.50;;;17.50;51.90;;;;;;5011880;28;21008;-64
2022/07/18 01:42:20;;;;;;;2.43;2.20;;;17.50;51.70;;;;;;5012303;28;20210;-64
2022/07/18 01:44:46;;;;;;;2.20;2.10;;;17.50;52.60;;;;;;5011858;28;20237;-64
2022/07/18 01:47:12;;;;;;;2.47;2.27;;;17.50;52.20;;;;;;5010464;28;20202;-64
2022/07/18 01:49:38;;;;;;;2.43;2.03;;;17.40;52.70;;;;;;5010742;28;20224;-64
2022/07/18 01:52:04;;;;;;;2.53;2.33;;;17.40;52.80;;;;;;5011750;28;20187;-64
2022/07/18 01:54:32;;;;;;;2.47;2.27;;;17.40;52.90;;;;;;5011677;28;20714;-64
2022/07/18 01:57:02;;;;;;;3.43;1.77;;;17.40;52.70;;;;;;5011725;28;20502;-64
2022/07/18 01:59:27;;;;;;;2.37;2.17;;;17.50;53.20;;;;;;5010846;28;20517;-63
2022/07/18 02:01:53;;;;;;;2.20;2.00;;;17.40;53.10;;;;;;5010525;28;20528;-66
2022/07/18 02:04:19;;;;;;;3.20;2.37;;;17.30;53.70;;;;;;5011179;28;20191;-65
2022/07/18 02:06:45;;;;;;;3.60;2.73;;;17.30;52.90;;;;;;5009033;28;20198;-64
2022/07/18 02:09:11;;;;;;;2.73;1.90;;;17.30;53.70;;;;;;5009601;28;20182;-64
2022/07/18 02:11:36;;;;;;;2.47;2.27;;;17.30;52.20;;;;;;5011956;28;20187;-64
2022/07/18 02:14:04;;;;;;;2.13;2.03;;;17.30;53.50;;;;;;5011608;28;20850;-65
2022/07/18 02:16:30;;;;;;;2.43;2.23;;;17.20;52.40;;;;;;5011180;28;20592;-65
2022/07/18 02:18:56;;;;;;;2.60;2.40;;;17.30;52.70;;;;;;5010142;28;20499;-65
2022/07/18 02:21:22;;;;;;;2.83;2.20;;;17.30;52.80;;;;;;5012306;28;20449;-65
2022/07/18 02:23:47;;;;;;;2.00;1.90;;;17.30;53.40;;;;;;5010765;28;20461;-64
2022/07/18 02:26:13;;;;;;;3.03;2.03;;;17.30;53.80;;;;;;5010717;28;20187;-64
2022/07/18 02:28:38;;;;;;;4.17;2.60;;;17.10;54.00;;;;;;5008172;28;20210;-66
2022/07/18 02:31:05;;;;;;;2.70;2.50;;;17.00;55.00;;;;;;5007514;28;20175;-64
2022/07/18 02:33:31;;;;;;;2.37;2.27;;;16.80;56.00;;;;;;5006024;28;20595;-65
2022/07/18 02:35:57;;;;;;;3.07;2.27;;;16.90;56.00;;;;;;5011818;28;20504;-65
2022/07/18 02:38:22;;;;;;;3.10;2.80;;;16.90;56.10;;;;;;5008165;28;20449;-64
2022/07/18 02:40:48;;;;;;;2.37;2.27;;;16.90;56.60;;;;;;5011545;28;20207;-63
2022/07/18 02:43:14;;;;;;;2.20;2.10;;;16.90;56.80;;;;;;5011075;28;20203;-64
2022/07/18 02:45:39;;;;;;;2.30;2.20;;;16.90;57.00;;;;;;5011652;28;20663;-65
2022/07/18 02:48:05;;;;;;;2.30;2.13;;;16.90;57.60;;;;;;5010061;28;20257;-64
2022/07/18 02:50:30;;;;;;;2.80;2.60;;;16.80;58.30;;;;;;5009739;28;20545;-64
2022/07/18 02:52:56;;;;;;;2.77;2.57;;;16.70;59.10;;;;;;5010498;28;20211;-64
2022/07/18 02:55:22;;;;;;;2.80;2.60;;;16.70;59.80;;;;;;5011382;28;20180;-64
2022/07/18 02:57:49;;;;;;;2.73;2.53;;;16.70;60.60;;;;;;5008861;28;20233;-64
2022/07/18 03:00:15;;;;;;;2.60;2.40;;;16.70;60.80;;;;;;5009002;28;20457;-64
2022/07/18 03:02:42;;;;;;;2.90;2.67;;;16.70;62.00;;;;;;5010372;28;20469;-67
2022/07/18 03:05:08;;;;;;;6.07;2.70;;;16.60;62.80;;;;;;5010325;28;20974;-65
2022/07/18 03:07:33;;;;;;;3.63;3.17;;;16.50;63.80;;;;;;5009194;28;20501;-65
2022/07/18 03:09:59;;;;;;;3.40;3.10;;;16.50;64.20;;;;;;5008651;28;20524;-65
2022/07/18 03:12:24;;;;;;;4.67;3.43;;;16.40;65.40;;;;;;5010123;28;20637;-67
2022/07/18 03:14:50;;;;;;;3.67;3.30;;;16.40;67.00;;;;;;5009368;28;20598;-64
2022/07/18 03:17:16;;;;;;;3.33;3.10;;;16.30;66.80;;;;;;5007300;28;20218;-64
2022/07/18 03:19:41;;;;;;;2.90;2.70;;;16.40;67.60;;;;;;5011144;28;20472;-65
2022/07/18 03:22:07;;;;;;;4.43;3.13;;;16.40;68.90;;;;;;5007848;28;20247;-65
2022/07/18 03:24:33;;;;;;;5.53;3.23;;;16.50;69.00;;;;;;5010002;28;20183;-64
2022/07/18 03:26:58;;;;;;;3.87;3.57;;;16.50;70.30;;;;;;5008283;28;20207;-64
2022/07/18 03:29:24;;;;;;;3.00;2.80;;;16.50;71.30;;;;;;5007260;28;20183;-64
2022/07/18 03:31:50;;;;;;;3.50;2.70;;;16.50;73.00;;;;;;5010101;28;20532;-63
2022/07/18 03:34:16;;;;;;;3.40;3.20;;;16.60;73.60;;;;;;5009674;28;20187;-64
2022/07/18 03:36:41;;;;;;;3.10;2.90;;;16.50;74.60;;;;;;5010148;28;20218;-64
2022/07/18 03:39:08;;;;;;;6.87;2.63;;;16.50;76.20;;;;;;5008746;28;20861;-63
2022/07/18 03:41:35;;;;;;;2.97;2.73;;;16.50;76.80;;;;;;5008660;28;20187;-63
2022/07/18 03:44:01;;;;;;;3.20;2.80;;;16.40;79.00;;;;;;5018395;28;20605;-64
2022/07/18 03:46:27;;;;;;;6.83;4.37;;;16.50;80.50;;;;;;5021953;28;20878;-65
2022/07/18 03:48:52;;;;;;;6.00;3.20;;;16.40;81.50;;;;;;5022242;28;20464;-64
2022/07/18 03:51:18;;;;;;;5.47;3.03;;;16.40;85.30;;;;;;5015409;28;20193;-64
2022/07/18 03:53:43;;;;;;;4.00;3.40;;;16.30;85.30;;;;;;5024192;22;20279;-65
2022/07/18 03:56:09;;;;;;;5.60;3.07;;;16.30;86.90;;;;;;4991449;28;20262;-64
2022/07/18 03:58:35;;;;;;;3.13;2.93;;;16.20;87.70;;;;;;4991036;28;20594;-64
2022/07/18 04:01:00;;;;;;;3.33;3.13;;;16.20;86.60;;;;;;4990263;28;20243;-64
2022/07/18 04:03:26;;;;;;;3.30;3.10;;;16.30;87.50;;;;;;4990967;28;20221;-64
2022/07/18 04:05:51;;;;;;;3.37;2.97;;;16.40;88.70;;;;;;4990956;28;20180;-64
2022/07/18 04:08:17;;;;;;;3.90;3.50;;;16.40;88.10;;;;;;4989155;28;20301;-64
2022/07/18 04:10:43;;;;;;;3.57;3.27;;;16.40;89.30;;;;;;4990598;28;20182;-64
2022/07/18 04:13:09;;;;;;;2.60;2.40;;;16.40;90.60;;;;;;4989767;28;20203;-64
2022/07/18 04:15:35;;;;;;;2.97;2.67;;;16.50;90.30;;;;;;4971678;28;22082;-64
2022/07/18 04:18:01;;;;;;;3.93;2.73;;;16.50;87.30;;;;;;4990436;28;20191;-64
2022/07/18 04:20:27;;;;;;;5.50;2.80;;;16.60;88.90;;;;;;4988717;28;20439;-64
2022/07/18 04:22:58;;;;;;;2.77;2.57;;;16.70;88.40;;;;;;4993505;28;20203;-64
2022/07/18 04:25:27;;;;;;;3.67;2.73;;;16.80;86.10;;;;;;4993089;28;20809;-64
2022/07/18 04:27:54;;;;;;;3.90;2.83;;;16.90;89.00;;;;;;4994062;28;20477;-64
2022/07/18 04:30:23;;;;;;;3.50;3.30;;;17.10;90.80;;;;;;4986985;28;20438;-64
2022/07/18 04:32:49;;;;;;;5.93;3.57;;;17.20;91.30;;;;;;4993422;28;20458;-64
2022/07/18 04:35:15;;;;;;;3.47;3.10;;;17.30;91.40;;;;;;4994114;28;20521;-64
2022/07/18 04:37:41;;;;;;;4.33;3.43;;;17.40;91.30;;;;;;4993650;28;20450;-64
2022/07/18 04:40:09;;;;;;;3.43;2.80;;;17.40;91.20;;;;;;4992979;28;20194;-64
2022/07/18 04:42:35;;;;;;;3.57;3.27;;;17.60;91.70;;;;;;4993505;28;20453;-64
2022/07/18 04:45:01;;;;;;;3.40;3.10;;;17.70;91.40;;;;;;4993116;28;20442;-64
2022/07/18 04:47:27;;;;;;;3.17;2.93;;;17.90;91.20;;;;;;4993276;28;20470;-64
2022/07/18 04:49:54;;;;;;;3.40;3.10;;;18.10;90.80;;;;;;4992428;28;20497;-64
2022/07/18 04:52:19;;;;;;;4.10;3.50;;;18.20;90.40;;;;;;4994450;28;20434;-64
2022/07/18 04:54:45;;;;;;;3.23;2.93;;;18.40;90.20;;;;;;4992537;28;20500;-64
2022/07/18 04:57:11;;;;;;;5.43;3.43;;;18.50;90.10;;;;;;4993668;28;20187;-64
2022/07/18 04:59:38;;;;;;;3.97;3.17;;;18.60;90.20;;;;;;4993291;28;20184;-64
2022/07/18 05:02:04;;;;;;;3.53;3.23;;;18.70;89.80;;;;;;4989274;28;20565;-64
2022/07/18 05:04:29;;;;;;;3.47;3.17;;;18.80;87.80;;;;;;4994167;28;21134;-64
2022/07/18 05:06:55;;;;;;;3.40;2.97;;;19.00;88.40;;;;;;4992711;28;20470;-64
2022/07/18 05:09:20;;;;;;;7.13;3.77;;;19.20;86.40;;;;;;4992808;28;20179;-64
2022/07/18 05:11:46;;;;;;;3.57;3.27;;;19.30;85.50;;;;;;4992061;28;21084;-64
2022/07/18 05:14:11;;;;;;;4.73;4.33;;;19.40;83.10;;;;;;4994175;28;20195;-64
2022/07/18 05:16:37;;;;;;;4.27;3.97;;;19.50;81.00;;;;;;4992662;28;20179;-65
2022/07/18 05:19:02;;;;;;;4.13;3.83;;;19.70;77.50;;;;;;4992889;28;20750;-64
2022/07/18 05:21:28;;;;;;;6.27;4.40;;;19.60;75.80;;;;;;4993500;28;20546;-64
2022/07/18 05:23:53;;;;;;;11.90;4.10;;;19.70;74.10;;;;;;4993212;28;20218;-64
2022/07/18 05:26:19;;;;;;;7.53;6.80;;;19.70;73.50;;;;;;4992228;28;20587;-64
2022/07/18 05:28:44;;;;;;;5.00;4.60;;;19.70;72.40;;;;;;4991030;28;20176;-64
2022/07/18 05:31:11;;;;;;;6.90;4.10;;;19.90;73.10;;;;;;4992209;28;20207;-64
2022/07/18 05:33:36;;;;;;;5.57;3.83;;;20.20;72.00;;;;;;4993301;28;20208;-64
2022/07/18 05:36:02;;;;;;;4.70;3.90;;;20.30;71.30;;;;;;4991191;28;20430;-64
2022/07/18 05:38:27;;;;;;;8.10;3.80;;;20.40;70.90;;;;;;4989364;28;20179;-64
2022/07/18 05:40:53;;;;;;;6.00;4.63;;;20.60;70.30;;;;;;4992644;28;20183;-64
2022/07/18 05:43:18;;;;;;;4.40;4.00;;;20.80;69.70;;;;;;4992771;28;20550;-64
2022/07/18 05:45:44;;;;;;;4.17;3.60;;;20.80;69.10;;;;;;4993774;28;20696;-64
2022/07/18 05:48:09;;;;;;;4.73;4.13;;;20.90;69.30;;;;;;4990062;28;20238;-64
2022/07/18 05:50:35;;;;;;;4.40;3.80;;;20.80;68.90;;;;;;4991048;28;20567;-64
2022/07/18 05:53:00;;;;;;;7.90;6.10;;;20.80;70.40;;;;;;4989408;28;20551;-64
2022/07/18 05:55:26;;;;;;;9.97;5.23;;;20.90;68.60;;;;;;4990822;28;20198;-64
2022/07/18 05:57:52;;;;;;;4.20;3.80;;;21.00;67.20;;;;;;4992613;28;20180;-64
2022/07/18 06:00:19;;;;;;;6.17;3.87;;;21.20;67.10;;;;;;4990514;28;20265;-64
2022/07/18 06:02:48;;;;;;;4.23;3.53;;;21.30;67.30;;;;;;4991514;28;20692;-64
2022/07/18 06:05:13;;;;;;;4.47;3.77;;;21.70;66.70;;;;;;4993098;28;20427;-64
2022/07/18 06:07:39;;;;;;;8.10;4.37;;;21.90;65.30;;;;;;4991471;28;20980;-63
2022/07/18 06:10:05;;;;;;;6.50;3.80;;;22.00;64.90;;;;;;4989193;28;20191;-63
2022/07/18 06:12:31;;;;;;;8.40;4.90;;;22.00;64.60;;;;;;4992901;28;20567;-63
2022/07/18 06:14:58;;;;;;;5.10;3.20;;;22.00;64.20;;;;;;4990882;28;20477;-64
2022/07/18 06:17:24;;;;;;;4.47;4.07;;;22.00;64.10;;;;;;4988868;28;20187;-64
2022/07/18 06:19:49;;;;;;;4.40;4.00;;;22.20;63.80;;;;;;4992080;28;20481;-64
2022/07/18 06:22:15;;;;;;;6.63;4.20;;;22.40;62.60;;;;;;4992781;28;20470;-63
2022/07/18 06:24:40;;;;;;;4.10;3.27;;;22.50;62.30;;;;;;4991156;28;20234;-63
2022/07/18 06:27:06;;;;;;;5.43;3.17;;;22.70;61.50;;;;;;4990909;28;20211;-63
2022/07/18 06:29:31;;;;;;;6.40;3.60;;;22.70;60.50;;;;;;4987549;28;20250;-63
2022/07/18 06:31:57;;;;;;;4.23;3.93;;;22.80;60.70;;;;;;4989380;28;20184;-67
2022/07/18 06:34:22;;;;;;;6.47;3.70;;;23.00;60.10;;;;;;4992721;28;20210;-67
2022/07/18 06:36:48;;;;;;;4.20;3.77;;;23.20;59.70;;;;;;4991592;28;20198;-67
2022/07/18 06:39:16;;;;;;;3.40;3.10;;;23.50;59.00;;;;;;4988729;28;20278;-67
2022/07/18 06:41:42;;;;;;;3.50;3.20;;;23.70;58.70;;;;;;4989281;28;20186;-67
2022/07/18 06:44:07;;;;;;;4.20;3.53;;;23.90;58.00;;;;;;4988652;28;20458;-67
2022/07/18 06:46:33;;;;;;;4.23;3.30;;;24.10;57.20;;;;;;4990484;28;20641;-67
2022/07/18 06:48:58;;;;;;;5.93;5.10;;;24.20;57.00;;;;;;4990771;28;20183;-67
2022/07/18 06:51:24;;;;;;;7.73;4.70;;;24.00;56.60;;;;;;4989315;28;20211;-67
2022/07/18 06:53:51;;;;;;;5.70;3.70;;;24.20;56.70;;;;;;4992019;28;20211;-67
2022/07/18 06:56:17;;;;;;;4.60;4.00;;;24.50;55.90;;;;;;4993185;28;20423;-67
2022/07/18 06:58:48;;;;;;;5.53;4.43;;;24.80;55.50;;;;;;4989852;28;20963;-67
2022/07/18 07:01:17;;;;;;;5.00;3.90;;;24.90;54.60;;;;;;4988427;28;20451;-67
2022/07/18 07:03:43;;;;;;;6.00;3.90;;;25.00;54.90;;;;;;4991970;28;20450;-67
2022/07/18 07:06:09;;;;;;;6.90;4.17;;;25.10;55.00;;;;;;4991044;28;20434;-67
2022/07/18 07:08:35;;;;;;;6.00;3.63;;;25.40;54.80;;;;;;4989388;28;20470;-67
2022/07/18 07:11:01;;;;;;;3.90;3.57;;;25.40;54.00;;;;;;4991150;28;20179;-67
2022/07/18 07:13:26;;;;;;;7.50;4.20;;;25.80;53.10;;;;;;4987398;28;20634;-67
2022/07/18 07:15:52;;;;;;;3.47;3.17;;;25.80;53.30;;;;;;4988581;28;20443;-67
2022/07/18 07:18:18;;;;;;;5.13;4.00;;;25.60;53.20;;;;;;4990505;28;20207;-67
2022/07/18 07:20:43;;;;;;;6.67;4.23;;;25.50;53.50;;;;;;4988592;28;20194;-67
2022/07/18 07:23:09;;;;;;;3.80;3.40;;;25.80;54.00;;;;;;4987971;28;20203;-67
2022/07/18 07:25:36;;;;;;;7.13;4.00;;;25.70;53.30;;;;;;4990650;28;20179;-67
2022/07/18 07:28:03;;;;;;;11.27;3.80;;;25.60;53.20;;;;;;4989312;28;20270;-67
2022/07/18 07:30:29;;;;;;;3.40;3.10;;;25.80;52.50;;;;;;4988582;28;20540;-67
2022/07/18 07:32:55;;;;;;;6.10;3.80;;;26.10;52.90;;;;;;4990442;28;20979;-67
2022/07/18 07:35:21;;;;;;;3.57;2.87;;;26.50;52.20;;;;;;4987708;28;20638;-67
2022/07/18 07:37:49;;;;;;;7.07;3.60;;;26.60;51.20;;;;;;4988070;28;20711;-67
2022/07/18 07:40:16;;;;;;;5.87;3.30;;;27.00;51.40;;;;;;4989417;28;20455;-67
2022/07/18 07:42:42;;;;;;;7.23;3.20;;;27.30;48.10;;;;;;4991373;28;21134;-67
2022/07/18 07:45:09;;;;;;;10.80;2.80;;;27.60;47.80;;;;;;4988032;28;20542;-67
2022/07/18 07:47:35;;;;;;;5.67;3.00;;;27.40;48.60;;;;;;4990989;28;20549;-67
2022/07/18 07:50:01;;;;;;;6.17;3.07;;;27.20;47.40;;;;;;4987411;28;20459;-67
2022/07/18 07:52:28;;;;;;;3.93;3.03;;;27.20;46.40;;;;;;4988881;28;20844;-67
2022/07/18 07:54:53;;;;;;;7.73;3.17;;;27.60;47.70;;;;;;4990837;28;20453;-67
2022/07/18 07:57:20;;;;;;;5.17;3.63;;;28.00;48.00;;;;;;4992702;28;20442;-67
2022/07/18 07:59:45;;;;;;;8.10;7.30;;;28.40;46.60;;;;;;4993245;28;20287;-67
2022/07/18 08:02:11;;;;;;;5.40;3.50;;;28.60;46.00;;;;;;4994668;28;20450;-67
2022/07/18 08:04:37;;;;;;;4.00;3.50;;;28.70;45.80;;;;;;4993836;28;20221;-67
2022/07/18 08:07:02;;;;;;;4.13;2.70;;;28.90;44.80;;;;;;4993721;28;20562;-67
2022/07/18 08:09:28;;;;;;;5.03;3.20;;;29.10;45.00;;;;;;4994065;28;20531;-67
2022/07/18 08:11:53;;;;;;;2.57;2.37;;;29.20;42.90;;;;;;4993499;28;20184;-67
2022/07/18 08:14:19;;;;;;;9.63;3.40;;;29.00;42.50;;;;;;4993415;28;20207;-67
2022/07/18 08:16:45;;;;;;;3.60;3.30;;;29.20;42.80;;;;;;4994176;28;20187;-67
2022/07/18 08:19:10;;;;;;;5.83;3.50;;;29.40;42.70;;;;;;4991148;28;20184;-67
2022/07/18 08:21:36;;;;;;;6.73;3.43;;;29.60;43.00;;;;;;4992615;28;20186;-67
2022/07/18 08:24:02;;;;;;;3.47;3.10;;;29.90;43.40;;;;;;4994062;28;20687;-67
2022/07/18 08:26:27;;;;;;;3.50;3.20;;;30.00;43.30;;;;;;4977064;28;20203;-67
2022/07/18 08:28:53;;;;;;;5.03;3.80;;;30.40;42.10;;;;;;4991457;28;20455;-67
2022/07/18 08:31:19;;;;;;;5.23;3.80;;;30.50;42.00;;;;;;4992568;28;20183;-67
2022/07/18 08:33:45;;;;;;;3.80;3.50;;;30.70;41.80;;;;;;4992776;28;20207;-67
2022/07/18 08:36:11;;;;;;;4.53;3.60;;;30.50;41.70;;;;;;4993038;28;20559;-67
2022/07/18 08:38:36;;;;;;;5.50;3.20;;;30.40;42.20;;;;;;4992220;28;20457;-67
2022/07/18 08:41:03;;;;;;;14.93;4.00;;;31.00;41.90;;;;;;4987333;28;20186;-67
2022/07/18 08:43:30;;;;;;;4.30;3.70;;;31.40;41.50;;;;;;4992937;28;20240;-67
2022/07/18 08:46:01;;;;;;;3.60;3.40;;;31.60;40.40;;;;;;4990472;28;20438;-67
2022/07/18 08:48:27;;;;;;;5.07;3.30;;;31.90;40.30;;;;;;4993045;28;20840;-67
2022/07/18 08:50:53;;;;;;;3.53;3.23;;;32.20;39.80;;;;;;4992122;28;20442;-67
2022/07/18 08:53:19;;;;;;;5.90;3.87;;;31.60;38.40;;;;;;4993328;28;20470;-67
2022/07/18 08:55:46;;;;;;;3.70;3.20;;;31.80;40.30;;;;;;4994483;28;20438;-67
2022/07/18 08:58:13;;;;;;;4.33;3.10;;;32.00;39.70;;;;;;4990161;28;20443;-67
2022/07/18 09:00:39;;;;;;;8.33;3.63;;;31.90;39.50;;;;;;4989443;28;20821;-67
2022/07/18 09:03:04;;;;;;;3.77;3.47;;;32.00;39.20;;;;;;4990804;28;20478;-67
2022/07/18 09:05:31;;;;;;;4.80;3.00;;;32.20;39.10;;;;;;4993267;28;20197;-67
2022/07/18 09:08:22;;;;;;;3.33;3.13;;;32.30;38.80;;;;;;4989786;28;20208;-67
2022/07/18 09:10:49;;;;;;;3.00;2.63;;;32.70;37.80;;;;;;4988485;28;20439;-67
2022/07/18 09:13:15;;;;;;;3.30;3.10;;;32.60;35.60;;;;;;4992893;28;20529;-67
2022/07/18 09:16:01;;;;;;;3.57;3.37;;;32.80;35.60;;;;;;4993961;28;20431;-67
2022/07/18 09:18:39;;;;;;;4.00;3.70;;;33.10;36.00;;;;;;4987394;28;20505;-67
2022/07/18 09:21:07;;;;;;;11.13;3.40;;;32.70;36.00;;;;;;4992053;28;20501;-67
2022/07/18 09:23:36;;;;;;;3.90;3.60;;;32.80;35.70;;;;;;4993041;28;20466;-67
2022/07/18 09:26:03;;;;;;;3.33;2.40;;;32.90;35.30;;;;;;4988589;28;20812;-67
2022/07/18 09:28:29;;;;;;;3.43;3.13;;;32.70;34.90;;;;;;4989624;28;20506;-67
2022/07/18 09:30:56;;;;;;;4.17;3.47;;;32.90;34.80;;;;;;4992922;28;20446;-67
2022/07/18 09:33:22;;;;;;;3.33;3.03;;;33.30;34.50;;;;;;4990195;28;20488;-67
2022/07/18 09:35:53;;;;;;;3.83;3.53;;;33.60;33.90;;;;;;4991012;28;20443;-67
2022/07/18 09:38:21;;;;;;;5.60;2.70;;;33.30;33.50;;;;;;4991094;28;20186;-67
2022/07/18 09:40:52;;;;;;;3.50;3.03;;;33.10;33.90;;;;;;4988037;28;20438;-67
2022/07/18 09:43:20;;;;;;;3.20;3.00;;;33.50;33.20;;;;;;4990054;28;20454;-67
2022/07/18 09:45:54;;;;;;;3.10;2.60;;;33.70;33.20;;;;;;4990080;28;20472;-67
2022/07/18 09:48:25;;;;;;;3.37;3.17;;;34.10;32.40;;;;;;4990016;28;20509;-65
2022/07/18 09:50:58;;;;;;;3.10;2.90;;;34.60;32.00;;;;;;4991363;28;20434;-67
2022/07/18 09:53:26;;;;;;;3.60;3.30;;;34.80;31.50;;;;;;4989953;28;20467;-67
2022/07/18 09:55:57;;;;;;;4.00;3.77;;;34.90;31.20;;;;;;4989999;28;20442;-67
2022/07/18 09:58:25;;;;;;;3.70;3.20;;;34.80;31.10;;;;;;4990047;28;20446;-67
2022/07/18 10:00:52;;;;;;;2.80;2.60;;;35.20;31.10;;;;;;4991043;28;20441;-67
2022/07/18 10:03:19;;;;;;;3.50;3.20;;;34.90;30.60;;;;;;4990631;28;20477;-67
2022/07/18 10:05:47;;;;;;;3.20;3.00;;;35.40;30.50;;;;;;4989953;28;20458;-67
2022/07/18 10:08:15;;;;;;;3.53;3.33;;;35.90;29.90;;;;;;4990334;28;20506;-67
2022/07/18 10:10:43;;;;;;;3.90;3.30;;;36.40;30.20;;;;;;4991407;28;20503;-66
2022/07/18 10:13:08;;;;;;;3.00;2.20;;;36.60;29.60;;;;;;4991290;28;20433;-65
2022/07/18 10:15:36;;;;;;;2.93;2.73;;;36.50;32.40;;;;;;4989704;28;20175;-65
2022/07/18 10:18:05;;;;;;;3.00;2.73;;;36.70;29.30;;;;;;4990484;28;20219;-65
2022/07/18 10:20:37;;;;;;;3.20;2.73;;;37.70;28.60;;;;;;4984853;28;20439;-65
2022/07/18 10:23:25;;;;;;;3.17;2.77;;;37.50;28.30;;;;;;4987676;28;20454;-65
2022/07/18 10:26:09;;;;;;;2.90;2.70;;;36.50;28.60;;;;;;4991816;28;20474;-63
2022/07/18 10:28:35;;;;;;;2.90;2.70;;;36.70;29.20;;;;;;4994291;28;20472;-65
2022/07/18 10:31:15;;;;;;;3.13;2.93;;;37.50;28.70;;;;;;4990644;28;20469;-65
2022/07/18 10:33:48;;;;;;;3.20;3.00;;;38.20;28.30;;;;;;4991776;28;20222;-63
2022/07/18 10:36:22;;;;;;;3.10;2.90;;;39.20;27.70;;;;;;4989690;28;20424;-63
2022/07/18 10:39:09;;;;;;;2.83;2.63;;;39.50;27.30;;;;;;4990752;28;20442;-63
2022/07/18 10:41:41;;;;;;;3.80;3.13;;;39.60;26.80;;;;;;4986735;28;20446;-63
2022/07/18 10:44:25;;;;;;;2.60;2.50;;;40.40;26.60;;;;;;4989587;28;20541;-63
2022/07/18 10:47:08;;;;;;;2.57;2.33;;;39.20;25.80;;;;;;4990647;28;20443;-63
2022/07/18 10:49:46;;;;;;;3.53;3.30;;;39.90;26.10;;;;;;4984313;28;20443;-63
2022/07/18 10:52:30;;;;;;;3.87;2.90;;;39.00;26.20;;;;;;4991264;28;20440;-63
2022/07/18 10:55:08;;;;;;;3.17;2.90;;;39.50;26.20;;;;;;4989624;28;20832;-63
2022/07/18 10:58:06;;;;;;;2.87;2.77;;;40.00;26.40;;;;;;4990505;28;20791;-63
2022/07/18 11:00:35;;;;;;;5.10;3.13;;;40.00;25.10;;;;;;4973066;28;20477;-64
2022/07/18 11:03:00;;;;;;;5.13;2.40;;;37.60;25.90;;;;;;4993398;28;20484;-65
2022/07/18 11:05:26;;;;;;;2.80;2.60;;;37.40;26.50;;;;;;4988302;28;20976;-65
2022/07/18 11:08:03;;;;;;;2.53;2.43;;;38.20;26.00;;;;;;4990144;28;20226;-63
2022/07/18 11:10:41;;;;;;;2.47;2.37;;;38.00;25.50;;;;;;4985378;28;20190;-63
2022/07/18 11:13:28;;;;;;;2.73;2.63;;;39.50;25.90;;;;;;4984587;28;20457;-63
2022/07/18 11:16:04;;;;;;;3.07;2.87;;;42.00;25.00;;;;;;4990347;28;20796;-63
2022/07/18 11:18:31;;;;;;;3.13;2.90;;;43.00;24.40;;;;;;4988143;28;20434;-63
2022/07/18 11:20:57;;;;;;;3.90;2.80;;;43.80;23.60;;;;;;4990106;28;20450;-63
2022/07/18 11:23:25;;;;;;;2.93;2.73;;;40.90;24.00;;;;;;4990685;28;20465;-63
2022/07/18 11:25:54;;;;;;;3.57;3.27;;;40.50;24.50;;;;;;4986821;28;20191;-65
2022/07/18 11:28:20;;;;;;;2.77;2.67;;;42.30;24.00;;;;;;4985935;28;20529;-65
2022/07/18 11:30:58;;;;;;;2.57;2.43;;;43.10;23.80;;;;;;4988116;28;20439;-65
2022/07/18 11:33:27;;;;;;;2.70;2.50;;;44.00;23.00;;;;;;4984302;28;20825;-65
2022/07/18 11:36:01;;;;;;;2.40;2.30;;;43.80;22.80;;;;;;4972214;28;21120;-65
2022/07/18 11:38:26;;;;;;;2.10;2.00;;;43.70;22.00;;;;;;4987812;28;20470;-63
2022/07/18 11:40:53;;;;;;;2.43;2.33;;;43.20;21.80;;;;;;4989788;28;20474;-63
2022/07/18 11:43:26;;;;;;;2.87;2.50;;;43.10;22.00;;;;;;4990329;28;20212;-63
2022/07/18 11:46:09;;;;;;;2.90;2.60;;;42.60;22.80;;;;;;4986967;28;20994;-62
2022/07/18 11:48:36;;;;;;;3.50;3.20;;;42.10;24.40;;;;;;4988309;28;20669;-63
2022/07/18 11:51:08;;;;;;;3.10;2.90;;;43.00;26.30;;;;;;4988926;28;20442;-63
2022/07/18 11:53:33;;;;;;;3.23;2.30;;;44.60;27.80;;;;;;4986702;28;20880;-63
2022/07/18 11:56:04;;;;;;;2.37;2.27;;;45.30;25.50;;;;;;4986910;28;20439;-63
2022/07/18 11:58:38;;;;;;;2.60;2.50;;;45.60;24.50;;;;;;4986041;28;20649;-63
2022/07/18 12:01:04;;;;;;;3.00;2.70;;;45.40;24.50;;;;;;4986990;28;20442;-63
2022/07/18 12:03:30;;;;;;;2.40;2.20;;;44.20;24.30;;;;;;4990026;28;20519;-63
2022/07/18 12:05:56;;;;;;;2.60;2.50;;;44.90;24.00;;;;;;4989350;28;20434;-63
2022/07/18 12:08:47;;;;;;;3.10;2.67;;;44.70;23.50;;;;;;4988487;28;20465;-63
2022/07/18 12:11:17;;;;;;;2.67;2.47;;;45.80;22.80;;;;;;4990166;28;20180;-63
2022/07/18 12:13:52;;;;;;;4.27;3.97;;;47.70;20.40;;;;;;4991001;28;20450;-63
2022/07/18 12:16:45;;;;;;;3.60;3.30;;;47.10;20.00;;;;;;4986717;28;20795;-63
2022/07/18 12:19:16;;;;;;;2.33;2.23;;;46.30;20.10;;;;;;4983615;28;20435;-63
2022/07/18 12:21:46;;;;;;;2.77;2.57;;;45.70;20.60;;;;;;4990085;28;20477;-62
2022/07/18 12:24:39;;;;;;;2.43;2.10;;;45.50;20.50;;;;;;4989229;28;20574;-62
2022/07/18 12:27:20;;;;;;;2.83;2.70;;;45.30;20.70;;;;;;4990147;28;20812;-62
2022/07/18 12:30:04;;;;;;;3.20;3.00;;;45.20;20.60;;;;;;4989359;28;20430;-64
2022/07/18 12:32:43;;;;;;;2.60;2.50;;;45.60;20.00;;;;;;4989998;28;20454;-63
2022/07/18 12:35:10;;;;;;;3.60;3.43;;;47.50;20.20;;;;;;4986911;28;20445;-63
2022/07/18 12:37:35;;;;;;;3.40;3.30;;;48.40;19.60;;;;;;4989424;28;20438;-63
2022/07/18 12:40:08;;;;;;;3.20;3.10;;;47.90;19.70;;;;;;4986987;28;20485;-63
2022/07/18 12:42:36;;;;;;;2.97;2.77;;;46.20;19.70;;;;;;4982618;28;20291;-66
2022/07/18 12:45:04;;;;;;;3.07;2.87;;;44.30;20.10;;;;;;4992058;28;20525;-67
2022/07/18 12:47:29;;;;;;;3.33;2.77;;;43.60;20.20;;;;;;4994228;28;20462;-65
2022/07/18 12:49:55;;;;;;;2.73;2.63;;;45.10;20.40;;;;;;4988492;28;20920;-66
2022/07/18 12:52:21;;;;;;;2.80;2.70;;;47.10;19.80;;;;;;4992893;28;20172;-66